sensor_id;sensor_type;location;lat;lon;timestamp;P1;durP1;ratioP1;P2;durP2;ratioP2
3943;SDS011;1986;52.546;13.428;2023-08-30T00:01:51;2.80;;;2.70;;
3943;SDS011;1986;52.546;13.428;2023-08-30T00:04:18;2.30;;;2.30;;
3943;SDS011;1986;52.546;13.428;2023-08-30T00:06:47;3.40;;;3.30;;
3943;SDS011;1986;52.546;13.428;2023-08-30T00:09:14;3.10;;;3.00;;
3943;SDS011;1986;52.546;13.428;2023-08-30T00:11:43;2.33;;;2.30;;
3943;SDS011;1986;52.546;13.428;2023-08-30T00:14:09;3.63;;;3.53;;
3943;SDS011;1986;52.546;13.428;2023-08-30T00:16:37;1.93;;;1.93;;
3943;SDS011;1986;52.546;13.428;2023-08-30T00:19:04;2.93;;;2.83;;
3943;SDS011;1986;52.546;13.428;2023-08-30T00:21:32;5.87;;;3.33;;
3943;SDS011;1986;52.546;13.428;2023-08-30T00:23:59;2.10;;;2.10;;
3943;SDS011;1986;52.546;13.428;2023-08-30T00:26:26;4.43;;;4.13;;
3943;SDS011;1986;52.546;13.428;2023-08-30T00:28:54;3.37;;;3.30;;
3943;SDS011;1986;52.546;13.428;2023-08-30T00:31:21;2.10;;;2.10;;
3943;SDS011;1986;52.546;13.428;2023-08-30T00:33:48;2.10;;;2.10;;
3943;SDS011;1986;52.546;13.428;2023-08-30T00:36:16;2.93;;;2.83;;
3943;SDS011;1986;52.546;13.428;2023-08-30T00:38:43;3.30;;;3.10;;
3943;SDS011;1986;52.546;13.428;2023-08-30T00:41:10;3.17;;;3.07;;
3943;SDS011;1986;52.546;13.428;2023-08-30T00:43:38;2.40;;;2.40;;
3943;SDS011;1986;52.546;13.428;2023-08-30T00:46:07;2.50;;;2.50;;
3943;SDS011;1986;52.546;13.428;2023-08-30T00:48:34;3.03;;;2.83;;
3943;SDS011;1986;52.546;13.428;2023-08-30T00:51:02;2.87;;;2.77;;
3943;SDS011;1986;52.546;13.428;2023-08-30T00:53:29;3.27;;;3.07;;
3943;SDS011;1986;52.546;13.428;2023-08-30T00:55:56;2.40;;;2.30;;
3943;SDS011;1986;52.546;13.428;2023-08-30T00:58:23;3.07;;;2.80;;
3943;SDS011;1986;52.546;13.428;2023-08-30T01:00:51;3.20;;;3.10;;
3943;SDS011;1986;52.546;13.428;2023-08-30T01:03:21;2.50;;;2.50;;
3943;SDS011;1986;52.546;13.428;2023-08-30T01:05:51;3.20;;;3.10;;
3943;SDS011;1986;52.546;13.428;2023-08-30T01:08:20;2.23;;;2.23;;
3943;SDS011;1986;52.546;13.428;2023-08-30T01:10:51;3.07;;;2.77;;
3943;SDS011;1986;52.546;13.428;2023-08-30T01:13:25;2.10;;;2.10;;
3943;SDS011;1986;52.546;13.428;2023-08-30T01:15:56;1.93;;;1.93;;
3943;SDS011;1986;52.546;13.428;2023-08-30T01:18:26;2.57;;;2.50;;
3943;SDS011;1986;52.546;13.428;2023-08-30T01:20:55;2.60;;;2.50;;
3943;SDS011;1986;52.546;13.428;2023-08-30T01:23:28;2.37;;;2.27;;
3943;SDS011;1986;52.546;13.428;2023-08-30T01:26:03;2.40;;;2.40;;
3943;SDS011;1986;52.546;13.428;2023-08-30T01:28:37;2.37;;;2.30;;
3943;SDS011;1986;52.546;13.428;2023-08-30T01:31:06;2.60;;;2.47;;
3943;SDS011;1986;52.546;13.428;2023-08-30T01:33:34;2.43;;;2.43;;
3943;SDS011;1986;52.546;13.428;2023-08-30T01:36:05;2.30;;;2.30;;
3943;SDS011;1986;52.546;13.428;2023-08-30T01:38:32;2.77;;;2.60;;
3943;SDS011;1986;52.546;13.428;2023-08-30T01:41:01;2.60;;;2.50;;
3943;SDS011;1986;52.546;13.428;2023-08-30T01:43:29;2.80;;;2.30;;
3943;SDS011;1986;52.546;13.428;2023-08-30T01:45:59;2.27;;;2.27;;
3943;SDS011;1986;52.546;13.428;2023-08-30T01:48:30;2.40;;;2.30;;
3943;SDS011;1986;52.546;13.428;2023-08-30T01:50:59;2.10;;;2.10;;
3943;SDS011;1986;52.546;13.428;2023-08-30T01:53:26;1.70;;;1.70;;
3943;SDS011;1986;52.546;13.428;2023-08-30T01:55:55;2.20;;;2.10;;
3943;SDS011;1986;52.546;13.428;2023-08-30T01:58:22;3.23;;;2.80;;
3943;SDS011;1986;52.546;13.428;2023-08-30T02:00:49;2.33;;;2.27;;
3943;SDS011;1986;52.546;13.428;2023-08-30T02:03:17;3.33;;;3.10;;
3943;SDS011;1986;52.546;13.428;2023-08-30T02:05:48;2.73;;;2.63;;
3943;SDS011;1986;52.546;13.428;2023-08-30T02:08:23;2.53;;;2.43;;
3943;SDS011;1986;52.546;13.428;2023-08-30T02:11:07;3.30;;;3.10;;
3943;SDS011;1986;52.546;13.428;2023-08-30T02:13:42;2.50;;;2.40;;
3943;SDS011;1986;52.546;13.428;2023-08-30T02:16:12;13.23;;;3.17;;
3943;SDS011;1986;52.546;13.428;2023-08-30T02:18:42;1.60;;;1.60;;
3943;SDS011;1986;52.546;13.428;2023-08-30T02:21:09;2.00;;;2.00;;
3943;SDS011;1986;52.546;13.428;2023-08-30T02:23:39;1.90;;;1.90;;
3943;SDS011;1986;52.546;13.428;2023-08-30T02:26:05;3.03;;;2.93;;
3943;SDS011;1986;52.546;13.428;2023-08-30T02:28:32;2.17;;;2.17;;
3943;SDS011;1986;52.546;13.428;2023-08-30T02:30:59;3.00;;;3.00;;
3943;SDS011;1986;52.546;13.428;2023-08-30T02:33:27;2.30;;;2.30;;
3943;SDS011;1986;52.546;13.428;2023-08-30T02:35:58;3.10;;;3.00;;
3943;SDS011;1986;52.546;13.428;2023-08-30T02:38:25;4.40;;;4.13;;
3943;SDS011;1986;52.546;13.428;2023-08-30T02:40:52;3.03;;;2.70;;
3943;SDS011;1986;52.546;13.428;2023-08-30T02:43:19;3.67;;;2.97;;
3943;SDS011;1986;52.546;13.428;2023-08-30T02:45:46;1.77;;;1.77;;
3943;SDS011;1986;52.546;13.428;2023-08-30T02:48:13;2.67;;;2.67;;
3943;SDS011;1986;52.546;13.428;2023-08-30T02:50:50;1.70;;;1.70;;
3943;SDS011;1986;52.546;13.428;2023-08-30T02:53:26;4.00;;;3.70;;
3943;SDS011;1986;52.546;13.428;2023-08-30T02:55:54;3.50;;;3.40;;
3943;SDS011;1986;52.546;13.428;2023-08-30T02:58:24;2.47;;;2.37;;
3943;SDS011;1986;52.546;13.428;2023-08-30T03:00:57;1.60;;;1.60;;
3943;SDS011;1986;52.546;13.428;2023-08-30T03:03:24;2.63;;;2.53;;
3943;SDS011;1986;52.546;13.428;2023-08-30T03:05:51;3.37;;;2.40;;
3943;SDS011;1986;52.546;13.428;2023-08-30T03:08:18;3.00;;;2.80;;
3943;SDS011;1986;52.546;13.428;2023-08-30T03:10:47;2.23;;;2.20;;
3943;SDS011;1986;52.546;13.428;2023-08-30T03:13:13;3.47;;;3.23;;
3943;SDS011;1986;52.546;13.428;2023-08-30T03:15:40;2.07;;;2.07;;
3943;SDS011;1986;52.546;13.428;2023-08-30T03:18:07;2.63;;;2.57;;
3943;SDS011;1986;52.546;13.428;2023-08-30T03:20:34;2.33;;;2.23;;
3943;SDS011;1986;52.546;13.428;2023-08-30T03:23:02;3.60;;;3.40;;
3943;SDS011;1986;52.546;13.428;2023-08-30T03:25:31;2.40;;;2.30;;
3943;SDS011;1986;52.546;13.428;2023-08-30T03:27:59;2.80;;;2.60;;
3943;SDS011;1986;52.546;13.428;2023-08-30T03:30:26;1.70;;;1.70;;
3943;SDS011;1986;52.546;13.428;2023-08-30T03:32:53;2.53;;;2.33;;
3943;SDS011;1986;52.546;13.428;2023-08-30T03:35:20;3.63;;;2.93;;
3943;SDS011;1986;52.546;13.428;2023-08-30T03:37:49;1.87;;;1.87;;
3943;SDS011;1986;52.546;13.428;2023-08-30T03:40:16;2.83;;;2.60;;
3943;SDS011;1986;52.546;13.428;2023-08-30T03:42:43;3.03;;;2.70;;
3943;SDS011;1986;52.546;13.428;2023-08-30T03:45:12;2.20;;;2.10;;
3943;SDS011;1986;52.546;13.428;2023-08-30T03:47:39;1.43;;;1.43;;
3943;SDS011;1986;52.546;13.428;2023-08-30T03:50:06;1.93;;;1.83;;
3943;SDS011;1986;52.546;13.428;2023-08-30T03:52:34;2.13;;;1.93;;
3943;SDS011;1986;52.546;13.428;2023-08-30T03:55:01;2.00;;;1.90;;
3943;SDS011;1986;52.546;13.428;2023-08-30T03:57:28;2.40;;;2.03;;
3943;SDS011;1986;52.546;13.428;2023-08-30T03:59:55;1.93;;;1.83;;
3943;SDS011;1986;52.546;13.428;2023-08-30T04:02:23;1.93;;;1.93;;
3943;SDS011;1986;52.546;13.428;2023-08-30T04:04:50;1.20;;;1.20;;
3943;SDS011;1986;52.546;13.428;2023-08-30T04:07:17;2.80;;;2.60;;
3943;SDS011;1986;52.546;13.428;2023-08-30T04:09:47;2.97;;;2.77;;
3943;SDS011;1986;52.546;13.428;2023-08-30T04:12:14;2.07;;;1.97;;
3943;SDS011;1986;52.546;13.428;2023-08-30T04:14:41;1.63;;;1.63;;
3943;SDS011;1986;52.546;13.428;2023-08-30T04:17:08;1.60;;;1.60;;
3943;SDS011;1986;52.546;13.428;2023-08-30T04:19:38;2.10;;;2.10;;
3943;SDS011;1986;52.546;13.428;2023-08-30T04:22:05;1.53;;;1.43;;
3943;SDS011;1986;52.546;13.428;2023-08-30T04:24:32;2.17;;;2.10;;
3943;SDS011;1986;52.546;13.428;2023-08-30T04:26:59;2.23;;;2.13;;
3943;SDS011;1986;52.546;13.428;2023-08-30T04:29:26;1.53;;;1.47;;
3943;SDS011;1986;52.546;13.428;2023-08-30T04:31:53;1.07;;;1.07;;
3943;SDS011;1986;52.546;13.428;2023-08-30T04:34:20;1.30;;;1.30;;
3943;SDS011;1986;52.546;13.428;2023-08-30T04:36:49;3.27;;;2.83;;
3943;SDS011;1986;52.546;13.428;2023-08-30T04:39:16;1.73;;;1.63;;
3943;SDS011;1986;52.546;13.428;2023-08-30T04:41:44;1.93;;;1.83;;
3943;SDS011;1986;52.546;13.428;2023-08-30T04:44:11;2.57;;;2.43;;
3943;SDS011;1986;52.546;13.428;2023-08-30T04:46:38;1.43;;;1.43;;
3943;SDS011;1986;52.546;13.428;2023-08-30T04:49:05;1.60;;;1.57;;
3943;SDS011;1986;52.546;13.428;2023-08-30T04:51:32;3.00;;;2.90;;
3943;SDS011;1986;52.546;13.428;2023-08-30T04:54:01;2.27;;;2.27;;
3943;SDS011;1986;52.546;13.428;2023-08-30T04:56:28;2.47;;;2.37;;
3943;SDS011;1986;52.546;13.428;2023-08-30T04:58:56;1.83;;;1.83;;
3943;SDS011;1986;52.546;13.428;2023-08-30T05:01:30;2.90;;;2.60;;
3943;SDS011;1986;52.546;13.428;2023-08-30T05:04:00;2.13;;;2.13;;
3943;SDS011;1986;52.546;13.428;2023-08-30T05:06:31;2.33;;;2.33;;
3943;SDS011;1986;52.546;13.428;2023-08-30T05:09:00;3.57;;;3.37;;
3943;SDS011;1986;52.546;13.428;2023-08-30T05:11:30;3.97;;;3.80;;
3943;SDS011;1986;52.546;13.428;2023-08-30T05:13:57;20.93;;;4.37;;
3943;SDS011;1986;52.546;13.428;2023-08-30T05:16:24;2.60;;;2.60;;
3943;SDS011;1986;52.546;13.428;2023-08-30T05:18:51;3.40;;;3.30;;
3943;SDS011;1986;52.546;13.428;2023-08-30T05:21:17;5.00;;;4.80;;
3943;SDS011;1986;52.546;13.428;2023-08-30T05:23:45;4.10;;;4.00;;
3943;SDS011;1986;52.546;13.428;2023-08-30T05:26:13;4.67;;;4.43;;
3943;SDS011;1986;52.546;13.428;2023-08-30T05:28:44;4.40;;;4.30;;
3943;SDS011;1986;52.546;13.428;2023-08-30T05:31:11;4.80;;;4.70;;
3943;SDS011;1986;52.546;13.428;2023-08-30T05:33:38;5.70;;;5.50;;
3943;SDS011;1986;52.546;13.428;2023-08-30T05:36:05;5.57;;;5.37;;
3943;SDS011;1986;52.546;13.428;2023-08-30T05:38:32;8.10;;;7.73;;
3943;SDS011;1986;52.546;13.428;2023-08-30T05:41:02;6.77;;;6.67;;
3943;SDS011;1986;52.546;13.428;2023-08-30T05:43:39;7.50;;;7.20;;
3943;SDS011;1986;52.546;13.428;2023-08-30T05:46:06;9.93;;;9.23;;
3943;SDS011;1986;52.546;13.428;2023-08-30T05:48:56;8.03;;;7.83;;
3943;SDS011;1986;52.546;13.428;2023-08-30T05:51:32;8.63;;;8.43;;
3943;SDS011;1986;52.546;13.428;2023-08-30T05:54:01;10.10;;;9.50;;
3943;SDS011;1986;52.546;13.428;2023-08-30T05:56:37;8.80;;;8.60;;
3943;SDS011;1986;52.546;13.428;2023-08-30T06:05:04;9.70;;;9.40;;
3943;SDS011;1986;52.546;13.428;2023-08-30T06:07:37;9.43;;;9.23;;
3943;SDS011;1986;52.546;13.428;2023-08-30T06:10:21;10.93;;;10.43;;
3943;SDS011;1986;52.546;13.428;2023-08-30T06:12:52;10.67;;;10.37;;
3943;SDS011;1986;52.546;13.428;2023-08-30T06:15:20;12.67;;;12.17;;
3943;SDS011;1986;52.546;13.428;2023-08-30T06:17:51;11.90;;;11.50;;
3943;SDS011;1986;52.546;13.428;2023-08-30T06:20:21;11.90;;;11.50;;
3943;SDS011;1986;52.546;13.428;2023-08-30T06:22:51;12.70;;;12.30;;
3943;SDS011;1986;52.546;13.428;2023-08-30T06:25:19;13.83;;;13.23;;
3943;SDS011;1986;52.546;13.428;2023-08-30T06:27:55;15.03;;;14.27;;
3943;SDS011;1986;52.546;13.428;2023-08-30T06:30:23;13.70;;;13.20;;
3943;SDS011;1986;52.546;13.428;2023-08-30T06:32:52;15.13;;;14.43;;
3943;SDS011;1986;52.546;13.428;2023-08-30T06:35:22;13.90;;;13.37;;
3943;SDS011;1986;52.546;13.428;2023-08-30T06:37:49;16.33;;;15.17;;
3943;SDS011;1986;52.546;13.428;2023-08-30T06:40:17;14.07;;;13.57;;
3943;SDS011;1986;52.546;13.428;2023-08-30T06:42:44;14.30;;;13.70;;
3943;SDS011;1986;52.546;13.428;2023-08-30T06:45:14;15.70;;;14.90;;
3943;SDS011;1986;52.546;13.428;2023-08-30T06:47:41;15.20;;;14.50;;
3943;SDS011;1986;52.546;13.428;2023-08-30T06:50:12;16.37;;;15.67;;
3943;SDS011;1986;52.546;13.428;2023-08-30T06:52:39;14.70;;;14.10;;
3943;SDS011;1986;52.546;13.428;2023-08-30T06:55:06;17.10;;;16.20;;
3943;SDS011;1986;52.546;13.428;2023-08-30T06:57:33;16.30;;;15.60;;
3943;SDS011;1986;52.546;13.428;2023-08-30T07:00:00;16.53;;;15.80;;
3943;SDS011;1986;52.546;13.428;2023-08-30T07:02:32;17.63;;;16.83;;
3943;SDS011;1986;52.546;13.428;2023-08-30T07:05:10;17.13;;;16.30;;
3943;SDS011;1986;52.546;13.428;2023-08-30T07:07:38;17.93;;;16.93;;
3943;SDS011;1986;52.546;13.428;2023-08-30T07:10:05;17.63;;;16.73;;
3943;SDS011;1986;52.546;13.428;2023-08-30T07:12:36;18.83;;;17.83;;
3943;SDS011;1986;52.546;13.428;2023-08-30T07:15:03;18.73;;;17.53;;
3943;SDS011;1986;52.546;13.428;2023-08-30T07:17:31;18.10;;;16.80;;
3943;SDS011;1986;52.546;13.428;2023-08-30T07:19:57;17.90;;;17.00;;
3943;SDS011;1986;52.546;13.428;2023-08-30T07:22:31;19.13;;;18.07;;
3943;SDS011;1986;52.546;13.428;2023-08-30T07:24:59;18.00;;;17.00;;
3943;SDS011;1986;52.546;13.428;2023-08-30T07:27:28;20.37;;;19.07;;
3943;SDS011;1986;52.546;13.428;2023-08-30T07:29:56;18.30;;;17.40;;
3943;SDS011;1986;52.546;13.428;2023-08-30T07:32:23;20.73;;;19.53;;
3943;SDS011;1986;52.546;13.428;2023-08-30T07:34:50;19.13;;;17.93;;
3943;SDS011;1986;52.546;13.428;2023-08-30T07:37:17;18.70;;;17.70;;
3943;SDS011;1986;52.546;13.428;2023-08-30T07:39:46;20.47;;;19.20;;
3943;SDS011;1986;52.546;13.428;2023-08-30T07:42:14;20.70;;;19.50;;
3943;SDS011;1986;52.546;13.428;2023-08-30T07:44:41;20.20;;;19.10;;
3943;SDS011;1986;52.546;13.428;2023-08-30T07:47:08;20.90;;;19.60;;
3943;SDS011;1986;52.546;13.428;2023-08-30T07:49:35;21.20;;;20.00;;
3943;SDS011;1986;52.546;13.428;2023-08-30T07:52:02;21.43;;;20.13;;
3943;SDS011;1986;52.546;13.428;2023-08-30T07:54:40;21.23;;;20.00;;
3943;SDS011;1986;52.546;13.428;2023-08-30T07:57:09;21.73;;;20.00;;
3943;SDS011;1986;52.546;13.428;2023-08-30T07:59:36;22.90;;;21.60;;
3943;SDS011;1986;52.546;13.428;2023-08-30T08:02:09;21.97;;;20.67;;
3943;SDS011;1986;52.546;13.428;2023-08-30T08:04:40;22.67;;;21.37;;
3943;SDS011;1986;52.546;13.428;2023-08-30T08:07:08;22.17;;;20.87;;
3943;SDS011;1986;52.546;13.428;2023-08-30T08:09:43;22.57;;;21.27;;
3943;SDS011;1986;52.546;13.428;2023-08-30T08:12:13;23.50;;;22.10;;
3943;SDS011;1986;52.546;13.428;2023-08-30T08:14:43;22.07;;;20.77;;
3943;SDS011;1986;52.546;13.428;2023-08-30T08:17:11;21.87;;;20.57;;
3943;SDS011;1986;52.546;13.428;2023-08-30T08:19:39;21.83;;;20.53;;
3943;SDS011;1986;52.546;13.428;2023-08-30T08:22:08;22.20;;;20.93;;
3943;SDS011;1986;52.546;13.428;2023-08-30T08:24:35;22.70;;;21.40;;
3943;SDS011;1986;52.546;13.428;2023-08-30T08:27:05;24.37;;;22.97;;
3943;SDS011;1986;52.546;13.428;2023-08-30T08:29:39;22.30;;;20.90;;
3943;SDS011;1986;52.546;13.428;2023-08-30T08:32:09;24.20;;;22.70;;
3943;SDS011;1986;52.546;13.428;2023-08-30T08:34:36;23.17;;;21.77;;
3943;SDS011;1986;52.546;13.428;2023-08-30T08:37:09;23.47;;;22.07;;
3943;SDS011;1986;52.546;13.428;2023-08-30T08:39:48;25.37;;;23.87;;
3943;SDS011;1986;52.546;13.428;2023-08-30T08:42:17;24.70;;;23.30;;
3943;SDS011;1986;52.546;13.428;2023-08-30T08:44:50;22.17;;;20.87;;
3943;SDS011;1986;52.546;13.428;2023-08-30T08:47:19;22.10;;;20.80;;
3943;SDS011;1986;52.546;13.428;2023-08-30T08:49:47;21.90;;;20.60;;
3943;SDS011;1986;52.546;13.428;2023-08-30T08:52:17;22.07;;;20.77;;
3943;SDS011;1986;52.546;13.428;2023-08-30T08:54:44;23.43;;;22.13;;
3943;SDS011;1986;52.546;13.428;2023-08-30T08:57:13;22.60;;;21.20;;
3943;SDS011;1986;52.546;13.428;2023-08-30T08:59:40;23.70;;;22.30;;
3943;SDS011;1986;52.546;13.428;2023-08-30T09:02:09;22.93;;;21.60;;
3943;SDS011;1986;52.546;13.428;2023-08-30T09:04:43;23.00;;;21.60;;
3943;SDS011;1986;52.546;13.428;2023-08-30T09:07:13;23.20;;;21.70;;
3943;SDS011;1986;52.546;13.428;2023-08-30T09:09:40;24.73;;;23.17;;
3943;SDS011;1986;52.546;13.428;2023-08-30T09:12:07;25.63;;;22.70;;
3943;SDS011;1986;52.546;13.428;2023-08-30T09:14:35;23.60;;;22.20;;
3943;SDS011;1986;52.546;13.428;2023-08-30T09:17:04;23.80;;;22.07;;
3943;SDS011;1986;52.546;13.428;2023-08-30T09:19:33;23.83;;;22.43;;
3943;SDS011;1986;52.546;13.428;2023-08-30T09:22:00;26.47;;;24.87;;
3943;SDS011;1986;52.546;13.428;2023-08-30T09:24:37;24.00;;;22.50;;
3943;SDS011;1986;52.546;13.428;2023-08-30T09:27:04;23.50;;;22.10;;
3943;SDS011;1986;52.546;13.428;2023-08-30T09:29:35;23.77;;;22.37;;
3943;SDS011;1986;52.546;13.428;2023-08-30T09:32:02;24.47;;;22.87;;
3943;SDS011;1986;52.546;13.428;2023-08-30T09:34:35;27.97;;;26.07;;
3943;SDS011;1986;52.546;13.428;2023-08-30T09:37:02;25.20;;;23.60;;
3943;SDS011;1986;52.546;13.428;2023-08-30T09:39:31;25.43;;;23.53;;
3943;SDS011;1986;52.546;13.428;2023-08-30T09:42:00;25.20;;;23.27;;
3943;SDS011;1986;52.546;13.428;2023-08-30T09:44:29;24.47;;;22.87;;
3943;SDS011;1986;52.546;13.428;2023-08-30T09:46:56;25.80;;;24.10;;
3943;SDS011;1986;52.546;13.428;2023-08-30T09:49:24;25.83;;;24.23;;
3943;SDS011;1986;52.546;13.428;2023-08-30T09:51:54;23.70;;;22.17;;
3943;SDS011;1986;52.546;13.428;2023-08-30T09:54:22;25.60;;;23.90;;
3943;SDS011;1986;52.546;13.428;2023-08-30T09:56:53;24.60;;;22.70;;
3943;SDS011;1986;52.546;13.428;2023-08-30T09:59:23;23.60;;;22.00;;
3943;SDS011;1986;52.546;13.428;2023-08-30T10:01:50;27.47;;;25.60;;
3943;SDS011;1986;52.546;13.428;2023-08-30T10:04:18;24.87;;;23.17;;
3943;SDS011;1986;52.546;13.428;2023-08-30T10:06:46;27.07;;;24.80;;
3943;SDS011;1986;52.546;13.428;2023-08-30T10:09:15;25.50;;;23.70;;
3943;SDS011;1986;52.546;13.428;2023-08-30T10:11:43;25.20;;;23.40;;
3943;SDS011;1986;52.546;13.428;2023-08-30T10:14:12;28.80;;;26.80;;
3943;SDS011;1986;52.546;13.428;2023-08-30T10:16:43;23.73;;;22.03;;
3943;SDS011;1986;52.546;13.428;2023-08-30T10:19:13;24.40;;;22.67;;
3943;SDS011;1986;52.546;13.428;2023-08-30T10:21:42;25.53;;;23.63;;
3943;SDS011;1986;52.546;13.428;2023-08-30T10:24:11;25.03;;;23.27;;
3943;SDS011;1986;52.546;13.428;2023-08-30T10:26:44;25.37;;;23.67;;
3943;SDS011;1986;52.546;13.428;2023-08-30T10:29:13;27.70;;;25.80;;
3943;SDS011;1986;52.546;13.428;2023-08-30T10:31:44;24.40;;;22.70;;
3943;SDS011;1986;52.546;13.428;2023-08-30T10:34:13;26.43;;;24.63;;
3943;SDS011;1986;52.546;13.428;2023-08-30T10:36:42;25.70;;;23.90;;
3943;SDS011;1986;52.546;13.428;2023-08-30T10:39:13;25.70;;;23.80;;
3943;SDS011;1986;52.546;13.428;2023-08-30T10:44:25;24.80;;;23.10;;
3943;SDS011;1986;52.546;13.428;2023-08-30T10:46:52;25.10;;;23.30;;
3943;SDS011;1986;52.546;13.428;2023-08-30T10:49:19;24.60;;;22.90;;
3943;SDS011;1986;52.546;13.428;2023-08-30T10:51:54;24.70;;;22.90;;
3943;SDS011;1986;52.546;13.428;2023-08-30T10:54:22;27.80;;;25.90;;
3943;SDS011;1986;52.546;13.428;2023-08-30T10:56:54;26.60;;;24.47;;
3943;SDS011;1986;52.546;13.428;2023-08-30T10:59:23;25.30;;;23.50;;
3943;SDS011;1986;52.546;13.428;2023-08-30T11:01:51;24.83;;;23.13;;
3943;SDS011;1986;52.546;13.428;2023-08-30T11:04:19;26.43;;;24.43;;
3943;SDS011;1986;52.546;13.428;2023-08-30T11:06:51;28.63;;;26.67;;
3943;SDS011;1986;52.546;13.428;2023-08-30T11:09:18;29.50;;;27.50;;
3943;SDS011;1986;52.546;13.428;2023-08-30T11:11:50;27.13;;;24.93;;
3943;SDS011;1986;52.546;13.428;2023-08-30T11:14:21;25.83;;;23.90;;
3943;SDS011;1986;52.546;13.428;2023-08-30T11:16:49;27.10;;;25.10;;
3943;SDS011;1986;52.546;13.428;2023-08-30T11:19:16;26.30;;;24.30;;
3943;SDS011;1986;52.546;13.428;2023-08-30T11:21:46;29.50;;;27.50;;
3943;SDS011;1986;52.546;13.428;2023-08-30T11:24:16;26.83;;;24.83;;
3943;SDS011;1986;52.546;13.428;2023-08-30T11:26:44;26.27;;;24.37;;
3943;SDS011;1986;52.546;13.428;2023-08-30T11:29:12;25.87;;;23.97;;
3943;SDS011;1986;52.546;13.428;2023-08-30T11:31:39;25.77;;;23.90;;
3943;SDS011;1986;52.546;13.428;2023-08-30T11:34:12;26.60;;;24.50;;
3943;SDS011;1986;52.546;13.428;2023-08-30T11:36:39;28.50;;;26.40;;
3943;SDS011;1986;52.546;13.428;2023-08-30T11:39:07;25.93;;;24.03;;
3943;SDS011;1986;52.546;13.428;2023-08-30T11:41:35;24.97;;;23.17;;
3943;SDS011;1986;52.546;13.428;2023-08-30T11:44:05;26.00;;;24.03;;
3943;SDS011;1986;52.546;13.428;2023-08-30T11:46:33;25.83;;;23.83;;
3943;SDS011;1986;52.546;13.428;2023-08-30T11:49:00;26.00;;;24.00;;
3943;SDS011;1986;52.546;13.428;2023-08-30T11:51:32;30.03;;;27.40;;
3943;SDS011;1986;52.546;13.428;2023-08-30T11:53:59;26.90;;;24.80;;
3943;SDS011;1986;52.546;13.428;2023-08-30T11:56:28;27.53;;;25.07;;
3943;SDS011;1986;52.546;13.428;2023-08-30T11:59:01;26.47;;;24.47;;
3943;SDS011;1986;52.546;13.428;2023-08-30T12:01:33;26.30;;;24.30;;
3943;SDS011;1986;52.546;13.428;2023-08-30T12:04:08;26.03;;;24.03;;
3943;SDS011;1986;52.546;13.428;2023-08-30T12:06:37;26.00;;;24.00;;
3943;SDS011;1986;52.546;13.428;2023-08-30T12:09:11;25.50;;;23.70;;
3943;SDS011;1986;52.546;13.428;2023-08-30T12:11:38;28.60;;;26.70;;
3943;SDS011;1986;52.546;13.428;2023-08-30T12:14:10;28.00;;;25.37;;
3943;SDS011;1986;52.546;13.428;2023-08-30T12:16:39;26.17;;;24.27;;
3943;SDS011;1986;52.546;13.428;2023-08-30T12:19:13;26.37;;;24.37;;
3943;SDS011;1986;52.546;13.428;2023-08-30T12:21:44;27.23;;;24.80;;
3943;SDS011;1986;52.546;13.428;2023-08-30T12:24:14;27.13;;;25.13;;
3943;SDS011;1986;52.546;13.428;2023-08-30T12:26:44;31.43;;;29.13;;
3943;SDS011;1986;52.546;13.428;2023-08-30T12:29:11;26.70;;;24.70;;
3943;SDS011;1986;52.546;13.428;2023-08-30T12:31:40;27.50;;;25.30;;
3943;SDS011;1986;52.546;13.428;2023-08-30T12:34:09;27.37;;;25.33;;
3943;SDS011;1986;52.546;13.428;2023-08-30T12:36:36;27.40;;;25.30;;
3943;SDS011;1986;52.546;13.428;2023-08-30T12:39:16;29.07;;;26.67;;
3943;SDS011;1986;52.546;13.428;2023-08-30T12:41:43;31.77;;;29.23;;
3943;SDS011;1986;52.546;13.428;2023-08-30T12:44:24;29.60;;;27.40;;
3943;SDS011;1986;52.546;13.428;2023-08-30T12:46:52;29.60;;;26.73;;
3943;SDS011;1986;52.546;13.428;2023-08-30T12:49:20;28.60;;;26.30;;
3943;SDS011;1986;52.546;13.428;2023-08-30T12:51:47;28.80;;;26.57;;
3943;SDS011;1986;52.546;13.428;2023-08-30T12:54:16;28.00;;;25.80;;
3943;SDS011;1986;52.546;13.428;2023-08-30T12:56:43;31.77;;;29.40;;
3943;SDS011;1986;52.546;13.428;2023-08-30T12:59:10;28.70;;;26.40;;
3943;SDS011;1986;52.546;13.428;2023-08-30T13:01:38;28.77;;;26.57;;
3943;SDS011;1986;52.546;13.428;2023-08-30T13:04:05;28.83;;;26.57;;
3943;SDS011;1986;52.546;13.428;2023-08-30T13:06:33;27.33;;;25.23;;
3943;SDS011;1986;52.546;13.428;2023-08-30T13:09:00;27.93;;;25.70;;
3943;SDS011;1986;52.546;13.428;2023-08-30T13:11:29;31.30;;;28.80;;
3943;SDS011;1986;52.546;13.428;2023-08-30T13:13:57;29.37;;;27.27;;
3943;SDS011;1986;52.546;13.428;2023-08-30T13:16:25;26.73;;;24.53;;
3943;SDS011;1986;52.546;13.428;2023-08-30T13:18:52;27.27;;;25.17;;
3943;SDS011;1986;52.546;13.428;2023-08-30T13:21:19;26.70;;;24.70;;
3943;SDS011;1986;52.546;13.428;2023-08-30T13:23:47;26.20;;;24.20;;
3943;SDS011;1986;52.546;13.428;2023-08-30T13:26:17;29.70;;;27.40;;
3943;SDS011;1986;52.546;13.428;2023-08-30T13:28:46;31.90;;;29.60;;
3943;SDS011;1986;52.546;13.428;2023-08-30T13:31:13;26.90;;;24.80;;
3943;SDS011;1986;52.546;13.428;2023-08-30T13:33:42;26.50;;;24.50;;
3943;SDS011;1986;52.546;13.428;2023-08-30T13:36:09;27.40;;;25.20;;
3943;SDS011;1986;52.546;13.428;2023-08-30T13:38:36;26.20;;;24.20;;
3943;SDS011;1986;52.546;13.428;2023-08-30T13:41:04;28.73;;;26.53;;
3943;SDS011;1986;52.546;13.428;2023-08-30T13:43:32;27.47;;;25.27;;
3943;SDS011;1986;52.546;13.428;2023-08-30T13:46:01;26.70;;;24.70;;
3943;SDS011;1986;52.546;13.428;2023-08-30T13:48:32;26.87;;;24.67;;
3943;SDS011;1986;52.546;13.428;2023-08-30T13:50:59;26.00;;;24.10;;
3943;SDS011;1986;52.546;13.428;2023-08-30T13:53:26;25.10;;;23.20;;
3943;SDS011;1986;52.546;13.428;2023-08-30T13:55:54;26.73;;;24.70;;
3943;SDS011;1986;52.546;13.428;2023-08-30T13:58:21;30.90;;;28.03;;
3943;SDS011;1986;52.546;13.428;2023-08-30T14:00:51;25.60;;;23.60;;
3943;SDS011;1986;52.546;13.428;2023-08-30T14:03:23;26.53;;;24.63;;
3943;SDS011;1986;52.546;13.428;2023-08-30T14:05:50;25.63;;;23.83;;
3943;SDS011;1986;52.546;13.428;2023-08-30T14:08:18;26.53;;;24.53;;
3943;SDS011;1986;52.546;13.428;2023-08-30T14:10:54;31.27;;;29.00;;
3943;SDS011;1986;52.546;13.428;2023-08-30T14:13:22;27.50;;;25.40;;
3943;SDS011;1986;52.546;13.428;2023-08-30T14:15:50;28.00;;;25.77;;
3943;SDS011;1986;52.546;13.428;2023-08-30T14:18:17;26.87;;;24.87;;
3943;SDS011;1986;52.546;13.428;2023-08-30T14:20:46;27.80;;;25.77;;
3943;SDS011;1986;52.546;13.428;2023-08-30T14:23:13;27.97;;;25.97;;
3943;SDS011;1986;52.546;13.428;2023-08-30T14:25:40;33.63;;;31.33;;
3943;SDS011;1986;52.546;13.428;2023-08-30T14:28:08;30.70;;;28.40;;
3943;SDS011;1986;52.546;13.428;2023-08-30T14:30:35;30.13;;;27.83;;
3943;SDS011;1986;52.546;13.428;2023-08-30T14:33:03;28.60;;;26.50;;
3943;SDS011;1986;52.546;13.428;2023-08-30T14:35:30;30.13;;;27.93;;
3943;SDS011;1986;52.546;13.428;2023-08-30T14:37:59;28.40;;;26.30;;
3943;SDS011;1986;52.546;13.428;2023-08-30T14:40:27;29.10;;;27.00;;
3943;SDS011;1986;52.546;13.428;2023-08-30T14:42:54;29.33;;;27.13;;
3943;SDS011;1986;52.546;13.428;2023-08-30T14:45:22;29.93;;;27.73;;
3943;SDS011;1986;52.546;13.428;2023-08-30T14:47:52;28.37;;;26.30;;
3943;SDS011;1986;52.546;13.428;2023-08-30T14:50:20;27.73;;;25.73;;
3943;SDS011;1986;52.546;13.428;2023-08-30T14:52:50;28.27;;;26.20;;
3943;SDS011;1986;52.546;13.428;2023-08-30T14:55:33;28.50;;;26.50;;
3943;SDS011;1986;52.546;13.428;2023-08-30T14:58:01;28.90;;;26.80;;
3943;SDS011;1986;52.546;13.428;2023-08-30T15:00:28;28.30;;;26.20;;
3943;SDS011;1986;52.546;13.428;2023-08-30T15:02:55;28.70;;;26.50;;
3943;SDS011;1986;52.546;13.428;2023-08-30T15:05:23;28.33;;;26.23;;